Metar z połowy godziny Komunikat METAR ze strony awiacja.imgw.pl Metar G30 EPLK METAR EPLK 240400Z VRB01KT 4000 BR BKN048 10/09 Q1014 RMK 096 097 7/7=